createdAt,value
2019-05-26T00:00:03.127Z,100459.67
2019-05-26T00:03:08.957Z,100459.39
2019-05-26T00:06:14.350Z,100459.39
2019-05-26T00:09:19.286Z,100451.52
2019-05-26T00:12:24.028Z,100451.52
2019-05-26T00:15:28.832Z,100462.82
2019-05-26T00:18:33.704Z,100467.51
2019-05-26T00:21:38.774Z,100460.24
2019-05-26T00:24:43.520Z,100462.11
2019-05-26T00:27:48.744Z,100457.45
2019-05-26T00:30:53.809Z,100457.45
2019-05-26T00:33:58.493Z,100454.17
2019-05-26T00:37:03.314Z,100447.36
2019-05-26T00:40:08.554Z,100447.36
2019-05-26T00:43:13.365Z,100444.96
2019-05-26T00:46:18.506Z,100447.84
2019-05-26T00:49:23.315Z,100456.26
2019-05-26T00:52:28.136Z,100445.42
2019-05-26T00:55:33.635Z,100445.42
2019-05-26T00:58:38.731Z,100448.38
2019-05-26T01:01:43.494Z,100450.33
2019-05-26T01:04:48.269Z,100432.20
2019-05-26T01:08:05.877Z,100432.20
2019-05-26T01:11:01.468Z,100439.72
2019-05-26T01:14:06.267Z,100440.68
2019-05-26T01:17:11.369Z,100442.64
2019-05-26T01:20:16.718Z,100442.64
2019-05-26T01:23:21.479Z,100451.53
2019-05-26T01:26:27.271Z,100446.45
2019-05-26T01:29:33.651Z,100446.45
2019-05-26T01:32:38.481Z,100457.86
2019-05-26T01:35:43.653Z,100453.72
2019-05-26T01:38:49.360Z,100457.47
2019-05-26T01:41:54.432Z,100460.42
2019-05-26T01:44:59.428Z,100461.68
2019-05-26T01:48:04.970Z,100463.94
2019-05-26T01:51:09.805Z,100458.29
2019-05-26T01:54:16.203Z,100475.09
2019-05-26T01:57:21.619Z,100473.36
2019-05-26T02:00:26.631Z,100475.23
2019-05-26T02:03:31.366Z,100475.23
2019-05-26T02:06:36.195Z,100473.75
2019-05-26T02:09:41.561Z,100479.63
2019-05-26T02:12:47.009Z,100480.65
2019-05-26T02:15:51.837Z,100482.56
2019-05-26T02:18:56.881Z,100485.52
2019-05-26T02:22:01.903Z,100494.45
2019-05-26T02:25:07.316Z,100491.41
2019-05-26T02:28:12.161Z,100485.52
2019-05-26T02:31:17.169Z,100489.89
2019-05-26T02:34:21.903Z,100489.09
2019-05-26T02:37:26.893Z,100490.27
2019-05-26T02:40:31.783Z,100487.49
2019-05-26T02:43:36.841Z,100484.56
2019-05-26T02:46:41.679Z,100487.12
2019-05-26T02:49:46.401Z,100493.72
2019-05-26T02:52:52.245Z,100489.62
2019-05-26T02:55:57.119Z,100495.56
2019-05-26T02:59:02.215Z,100496.77
2019-05-26T03:02:07.352Z,100497.00
2019-05-26T03:05:12.971Z,100499.02
2019-05-26T03:08:17.722Z,100496.35
2019-05-26T03:11:26.232Z,100496.03
2019-05-26T03:14:33.432Z,100491.79
2019-05-26T03:17:40.954Z,100491.94
2019-05-26T03:20:45.993Z,100490.71
2019-05-26T03:23:52.273Z,100494.17
2019-05-26T03:26:58.603Z,100497.89
2019-05-26T03:30:03.447Z,100495.36
2019-05-26T03:33:08.545Z,100497.34
2019-05-26T03:36:13.587Z,100491.08
2019-05-26T03:39:18.322Z,100486.50
2019-05-26T03:42:23.053Z,100489.15
2019-05-26T03:46:11.282Z,100493.84
2019-05-26T03:49:16.293Z,100492.45
2019-05-26T03:52:21.372Z,100493.26
2019-05-26T03:55:26.099Z,100493.39
2019-05-26T03:58:31.579Z,100501.46
2019-05-26T04:01:36.679Z,100497.49
2019-05-26T04:04:41.653Z,100495.51
2019-05-26T04:07:47.106Z,100499.73
2019-05-26T04:10:52.347Z,100502.73
2019-05-26T04:13:58.714Z,100505.63
2019-05-26T04:17:03.859Z,100501.34
2019-05-26T04:20:09.063Z,100506.91
2019-05-26T04:23:14.083Z,100507.48
2019-05-26T04:26:18.853Z,100504.63
2019-05-26T04:29:24.649Z,100514.64
2019-05-26T04:32:29.471Z,100511.20
2019-05-26T04:35:34.204Z,100511.12
2019-05-26T04:38:39.213Z,100514.91
2019-05-26T04:41:44.392Z,100516.88
2019-05-26T04:44:49.243Z,100514.39
2019-05-26T04:47:54.302Z,100511.00
2019-05-26T04:50:59.130Z,100515.38
2019-05-26T04:54:04.040Z,100524.59
2019-05-26T04:57:09.234Z,100522.50
2019-05-26T05:00:14.543Z,100518.70
2019-05-26T05:03:19.326Z,100530.36
2019-05-26T05:06:24.433Z,100526.90
2019-05-26T05:09:29.223Z,100529.98
2019-05-26T05:12:34.226Z,100519.85
2019-05-26T05:15:39.336Z,100529.29
2019-05-26T05:18:44.095Z,100531.87
2019-05-26T05:21:49.036Z,100531.52
2019-05-26T05:24:53.857Z,100528.50
2019-05-26T05:27:58.701Z,100528.84
2019-05-26T05:31:03.883Z,100527.63
2019-05-26T05:34:08.633Z,100532.46
2019-05-26T05:37:13.617Z,100530.50
2019-05-26T05:40:19.170Z,100533.22
2019-05-26T05:43:24.372Z,100533.22
2019-05-26T05:46:29.289Z,100536.41
2019-05-26T05:49:34.122Z,100539.45
2019-05-26T05:52:39.205Z,100535.55
2019-05-26T05:55:44.066Z,100536.34
2019-05-26T05:58:48.830Z,100541.71
2019-05-26T06:01:55.220Z,100536.91
2019-05-26T06:05:00.053Z,100544.38
2019-05-26T06:08:05.030Z,100546.89
2019-05-26T06:11:16.722Z,100541.03
2019-05-26T06:14:16.870Z,100526.25
2019-05-26T06:17:21.644Z,100538.28
2019-05-26T06:20:26.511Z,100533.36
2019-05-26T06:23:31.251Z,100536.49
2019-05-26T06:26:36.433Z,100535.28
2019-05-26T06:29:56.008Z,100531.72
2019-05-26T06:32:48.079Z,100529.48
2019-05-26T06:35:52.952Z,100529.48
2019-05-26T06:38:57.834Z,100545.00
2019-05-26T06:42:03.147Z,100532.98
2019-05-26T06:45:08.577Z,100532.98
2019-05-26T06:48:14.907Z,100534.84
2019-05-26T06:51:20.779Z,100536.17
2019-05-26T06:54:25.600Z,100534.56
2019-05-26T06:57:30.533Z,100535.27
2019-05-26T07:00:35.267Z,100540.44
2019-05-26T07:03:40.066Z,100540.09
2019-05-26T07:06:46.221Z,100542.36
2019-05-26T07:09:52.147Z,100542.36
2019-05-26T07:12:58.076Z,100537.56
2019-05-26T07:16:02.936Z,100537.56
2019-05-26T07:19:07.762Z,100539.48
2019-05-26T07:22:13.867Z,100533.53
2019-05-26T07:25:18.770Z,100535.23
2019-05-26T07:28:23.709Z,100528.78
2019-05-26T07:31:29.212Z,100528.78
2019-05-26T07:34:34.339Z,100524.16
2019-05-26T07:37:40.491Z,100518.92
2019-05-26T07:40:45.258Z,100521.41
2019-05-26T07:43:50.118Z,100525.91
2019-05-26T07:46:54.989Z,100525.23
2019-05-26T07:49:59.852Z,100526.38
2019-05-26T07:53:04.745Z,100522.91
2019-05-26T07:56:09.787Z,100518.35
2019-05-26T07:59:14.953Z,100524.36
2019-05-26T08:02:20.029Z,100521.67
2019-05-26T08:05:24.823Z,100524.53
2019-05-26T08:08:29.965Z,100520.47
2019-05-26T08:11:34.839Z,100521.19
2019-05-26T08:14:39.687Z,100519.70
2019-05-26T08:17:44.488Z,100513.25
2019-05-26T08:20:49.661Z,100513.17
2019-05-26T08:23:54.478Z,100513.27
2019-05-26T08:26:59.270Z,100509.91
2019-05-26T08:30:05.284Z,100520.17
2019-05-26T08:33:10.010Z,100514.86
2019-05-26T08:36:14.840Z,100514.32
2019-05-26T08:39:19.652Z,100513.78
2019-05-26T08:42:31.930Z,100506.77
2019-05-26T08:45:31.266Z,100509.52
2019-05-26T08:48:36.117Z,100511.01
2019-05-26T08:51:41.908Z,100507.85
2019-05-26T08:54:46.781Z,100499.77
2019-05-26T08:57:51.782Z,100500.49
2019-05-26T09:00:56.551Z,100497.74
2019-05-26T09:04:01.358Z,100490.25
2019-05-26T09:07:06.517Z,100480.41
2019-05-26T09:10:13.070Z,100479.17
2019-05-26T09:13:18.232Z,100479.88
2019-05-26T09:16:26.290Z,100486.10
2019-05-26T09:19:31.363Z,100491.64
2019-05-26T09:22:36.875Z,100487.76
2019-05-26T09:25:42.277Z,100479.20
2019-05-26T09:28:47.327Z,100478.48
2019-05-26T09:31:52.419Z,100478.33
2019-05-26T09:34:57.286Z,100478.78
2019-05-26T09:38:02.333Z,100479.59
2019-05-26T09:41:07.256Z,100479.89
2019-05-26T09:44:12.104Z,100476.72
2019-05-26T09:47:16.910Z,100476.40
2019-05-26T09:50:22.858Z,100477.81
2019-05-26T09:53:28.687Z,100468.83
2019-05-26T09:56:34.793Z,100468.08
2019-05-26T09:59:39.846Z,100470.46
2019-05-26T10:02:44.759Z,100465.37
2019-05-26T10:05:49.596Z,100461.84
2019-05-26T10:08:54.338Z,100452.19
2019-05-26T10:12:00.794Z,100450.63
2019-05-26T10:15:06.577Z,100452.56
2019-05-26T10:18:12.714Z,100447.59
2019-05-26T10:21:17.918Z,100444.62
2019-05-26T10:24:22.716Z,100446.47
2019-05-26T10:27:27.573Z,100450.61
2019-05-26T10:30:32.692Z,100441.89
2019-05-26T10:33:37.853Z,100443.37
2019-05-26T10:36:42.689Z,100434.36
2019-05-26T10:39:47.797Z,100430.22
2019-05-26T10:42:52.523Z,100427.53
2019-05-26T10:45:58.321Z,100426.67
2019-05-26T10:49:03.208Z,100419.22
2019-05-26T10:52:08.538Z,100422.27
2019-05-26T10:55:13.420Z,100420.73
2019-05-26T10:58:18.604Z,100424.00
2019-05-26T11:01:23.738Z,100416.92
2019-05-26T11:04:29.133Z,100417.95
2019-05-26T11:07:33.942Z,100407.68
2019-05-26T11:10:38.772Z,100409.89
2019-05-26T11:13:43.831Z,100405.48
2019-05-26T11:16:48.692Z,100403.98
2019-05-26T11:19:53.604Z,100388.80
2019-05-26T11:22:58.373Z,100390.23
2019-05-26T11:26:03.549Z,100388.12
2019-05-26T11:29:08.385Z,100392.17
2019-05-26T11:32:13.523Z,100383.80
2019-05-26T11:35:19.165Z,100381.08
2019-05-26T11:38:24.465Z,100374.72
2019-05-26T11:41:29.886Z,100371.49
2019-05-26T11:44:35.103Z,100368.64
2019-05-26T11:47:39.833Z,100359.29
2019-05-26T11:50:44.693Z,100360.36
2019-05-26T11:53:49.773Z,100355.55
2019-05-26T11:56:54.557Z,100353.31
2019-05-26T12:00:01.044Z,100350.51
2019-05-26T12:03:06.254Z,100345.05
2019-05-26T12:06:11.257Z,100344.73
2019-05-26T12:09:16.076Z,100339.95
2019-05-26T12:12:20.866Z,100332.51
2019-05-26T12:15:26.978Z,100325.65
2019-05-26T12:18:31.786Z,100326.69
2019-05-26T12:21:36.949Z,100333.84
2019-05-26T12:24:42.176Z,100331.08
2019-05-26T12:27:47.068Z,100317.97
2019-05-26T12:30:51.794Z,100330.73
2019-05-26T12:33:56.586Z,100323.81
2019-05-26T12:37:01.655Z,100315.95
2019-05-26T12:40:07.025Z,100327.40
2019-05-26T12:43:12.241Z,100314.24
2019-05-26T12:46:17.081Z,100306.70
2019-05-26T12:49:21.873Z,100303.73
2019-05-26T12:52:27.874Z,100304.87
2019-05-26T12:55:33.673Z,100295.41
2019-05-26T12:58:38.534Z,100294.16
2019-05-26T13:01:43.739Z,100289.11
2019-05-26T13:04:48.506Z,100290.57
2019-05-26T13:07:53.397Z,100289.14
2019-05-26T13:10:58.231Z,100283.36
2019-05-26T13:14:03.253Z,100285.81
2019-05-26T13:17:08.628Z,100280.44
2019-05-26T13:20:14.870Z,100278.52
2019-05-26T13:23:19.801Z,100283.12
2019-05-26T13:26:24.938Z,100280.13
2019-05-26T13:32:33.211Z,100277.37
2019-05-26T13:35:37.988Z,100279.76
2019-05-26T13:38:42.790Z,100274.13
2019-05-26T13:41:47.861Z,100267.59
2019-05-26T13:44:52.922Z,100275.77
2019-05-26T13:47:57.770Z,100269.29
2019-05-26T13:51:02.725Z,100273.38
2019-05-26T13:54:08.104Z,100272.20
2019-05-26T13:57:12.911Z,100268.07
2019-05-26T14:00:18.511Z,100263.75
2019-05-26T14:03:24.279Z,100259.66
2019-05-26T14:06:29.225Z,100259.70
2019-05-26T14:09:34.369Z,100266.33
2019-05-26T14:12:39.285Z,100251.89
2019-05-26T14:15:44.107Z,100248.44
2019-05-26T14:18:49.516Z,100243.14
2019-05-26T14:21:54.667Z,100247.36
2019-05-26T14:24:59.895Z,100237.48
2019-05-26T14:28:05.258Z,100239.55
2019-05-26T14:31:10.050Z,100238.18
2019-05-26T14:34:14.780Z,100234.27
2019-05-26T14:37:19.541Z,100232.12
2019-05-26T14:40:24.414Z,100230.98
2019-05-26T14:43:29.624Z,100219.78
2019-05-26T14:46:34.706Z,100217.80
2019-05-26T14:49:39.975Z,100209.09
2019-05-26T14:52:44.841Z,100208.98
2019-05-26T14:55:49.710Z,100210.26
2019-05-26T14:58:54.550Z,100212.92
2019-05-26T15:01:59.485Z,100217.47
2019-05-26T15:05:04.941Z,100208.48
2019-05-26T15:08:09.697Z,100211.56
2019-05-26T15:11:14.723Z,100206.61
2019-05-26T15:14:19.538Z,100204.44
2019-05-26T15:17:24.855Z,100196.55
2019-05-26T15:20:29.759Z,100197.76
2019-05-26T15:23:34.509Z,100199.17
2019-05-26T15:26:42.400Z,100188.44
2019-05-26T15:29:47.216Z,100193.17
2019-05-26T15:32:52.060Z,100187.25
2019-05-26T15:35:56.949Z,100186.66
2019-05-26T15:39:01.808Z,100183.84
2019-05-26T15:42:08.502Z,100178.91
2019-05-26T15:45:16.186Z,100178.92
2019-05-26T15:48:20.988Z,100174.47
2019-05-26T15:51:26.136Z,100175.42
2019-05-26T15:54:30.988Z,100178.23
2019-05-26T15:57:36.133Z,100172.37
2019-05-26T16:00:41.220Z,100170.73
2019-05-26T16:03:47.262Z,100166.16
2019-05-26T16:06:52.364Z,100166.22
2019-05-26T16:09:57.328Z,100159.46
2019-05-26T16:13:02.125Z,100162.61
2019-05-26T16:16:06.915Z,100163.42
2019-05-26T16:19:11.814Z,100158.20
2019-05-26T16:22:17.100Z,100153.88
2019-05-26T16:25:22.136Z,100156.29
2019-05-26T16:28:27.224Z,100153.15
2019-05-26T16:31:32.275Z,100149.92
2019-05-26T16:34:37.263Z,100146.84
2019-05-26T16:37:42.056Z,100148.19
2019-05-26T16:40:46.957Z,100148.51
2019-05-26T16:43:51.841Z,100150.17
2019-05-26T16:46:57.161Z,100150.30
2019-05-26T16:50:01.942Z,100147.80
2019-05-26T16:53:06.670Z,100140.33
2019-05-26T16:56:11.573Z,100138.16
2019-05-26T16:59:16.618Z,100135.86
2019-05-26T17:02:21.375Z,100132.51
2019-05-26T17:05:26.249Z,100128.73
2019-05-26T17:08:31.207Z,100125.50
2019-05-26T17:11:37.290Z,100124.27
2019-05-26T17:14:42.118Z,100118.32
2019-05-26T17:17:47.130Z,100114.24
2019-05-26T17:20:51.941Z,100118.08
2019-05-26T17:23:56.910Z,100117.48
2019-05-26T17:27:01.709Z,100114.41
2019-05-26T17:30:07.011Z,100113.42
2019-05-26T17:33:11.979Z,100115.31
2019-05-26T17:36:16.778Z,100111.83
2019-05-26T17:39:22.036Z,100105.92
2019-05-26T17:42:27.211Z,100111.55
2019-05-26T17:45:32.513Z,100111.37
2019-05-26T17:48:37.364Z,100109.64
2019-05-26T17:51:42.538Z,100106.44
2019-05-26T17:54:47.315Z,100102.14
2019-05-26T17:57:52.191Z,100100.70
2019-05-26T18:00:57.063Z,100108.09
2019-05-26T18:04:01.889Z,100105.57
2019-05-26T18:07:07.205Z,100101.75
2019-05-26T18:10:13.223Z,100105.48
2019-05-26T18:13:17.992Z,100100.05
2019-05-26T18:16:22.775Z,100096.39
2019-05-26T18:19:29.766Z,100100.61
2019-05-26T18:22:34.495Z,100097.14
2019-05-26T18:25:40.061Z,100092.93
2019-05-26T18:28:44.998Z,100094.34
2019-05-26T18:31:49.858Z,100093.23
2019-05-26T18:34:54.875Z,100092.81
2019-05-26T18:38:00.549Z,100100.03
2019-05-26T18:41:05.588Z,100100.16
2019-05-26T18:44:10.422Z,100088.65
2019-05-26T18:47:15.414Z,100094.08
2019-05-26T18:50:20.292Z,100094.80
2019-05-26T18:53:25.097Z,100090.11
2019-05-26T18:56:30.557Z,100086.19
2019-05-26T18:59:35.401Z,100086.72
2019-05-26T19:02:40.265Z,100082.61
2019-05-26T19:05:45.094Z,100078.27
2019-05-26T19:08:50.247Z,100085.67
2019-05-26T19:11:55.570Z,100088.77
2019-05-26T19:15:01.362Z,100091.72
2019-05-26T19:18:19.440Z,100089.68
2019-05-26T19:21:14.199Z,100087.52
2019-05-26T19:24:18.964Z,100088.73
2019-05-26T19:27:23.848Z,100085.35
2019-05-26T19:30:28.914Z,100084.16
2019-05-26T19:33:33.685Z,100087.87
2019-05-26T19:36:38.559Z,100090.50
2019-05-26T19:39:43.365Z,100095.13
2019-05-26T19:42:49.444Z,100096.17
2019-05-26T19:45:54.704Z,100100.66
2019-05-26T19:48:59.463Z,100098.61
2019-05-26T19:52:04.414Z,100095.20
2019-05-26T19:55:10.207Z,100095.08
2019-05-26T19:58:15.118Z,100095.22
2019-05-26T20:01:19.922Z,100101.56
2019-05-26T20:04:25.071Z,100094.98
2019-05-26T20:07:29.986Z,100098.30
2019-05-26T20:10:35.483Z,100096.11
2019-05-26T20:13:40.447Z,100094.41
2019-05-26T20:16:45.305Z,100099.98
2019-05-26T20:19:50.214Z,100093.44
2019-05-26T20:22:55.047Z,100099.76
2019-05-26T20:26:00.089Z,100098.79
2019-05-26T20:29:05.029Z,100095.44
2019-05-26T20:32:09.972Z,100095.80
2019-05-26T20:35:15.282Z,100093.48
2019-05-26T20:38:20.444Z,100093.48
2019-05-26T20:41:25.327Z,100090.64
2019-05-26T20:44:30.652Z,100088.79
2019-05-26T20:47:35.811Z,100086.74
2019-05-26T20:50:40.850Z,100092.55
2019-05-26T20:53:46.535Z,100093.73
2019-05-26T20:56:51.630Z,100097.87
2019-05-26T20:59:56.480Z,100094.18
2019-05-26T21:03:01.621Z,100090.27
2019-05-26T21:06:06.533Z,100089.73
2019-05-26T21:09:11.768Z,100097.95
2019-05-26T21:12:16.547Z,100089.44
2019-05-26T21:15:21.457Z,100094.14
2019-05-26T21:18:28.670Z,100088.52
2019-05-26T21:21:34.168Z,100091.06
2019-05-26T21:24:38.956Z,100085.69
2019-05-26T21:27:43.768Z,100089.19
2019-05-26T21:30:49.044Z,100084.80
2019-05-26T21:33:53.894Z,100088.74
2019-05-26T21:36:58.967Z,100086.89
2019-05-26T21:40:04.796Z,100091.20
2019-05-26T21:43:09.923Z,100083.67
2019-05-26T21:46:15.033Z,100082.44
2019-05-26T21:49:21.105Z,100070.01
2019-05-26T21:52:25.907Z,100078.35
2019-05-26T21:55:30.766Z,100072.12
2019-05-26T21:58:35.528Z,100076.38
2019-05-26T22:01:41.048Z,100072.44
2019-05-26T22:04:46.150Z,100075.64
2019-05-26T22:07:51.206Z,100073.88
2019-05-26T22:10:55.948Z,100072.30
2019-05-26T22:14:01.070Z,100071.33
2019-05-26T22:17:06.144Z,100077.72
2019-05-26T22:20:11.472Z,100077.47
2019-05-26T22:23:16.593Z,100074.32
2019-05-26T22:26:21.615Z,100072.66
2019-05-26T22:29:26.452Z,100069.37
2019-05-26T22:32:31.169Z,100062.61
2019-05-26T22:35:36.566Z,100061.77
2019-05-26T22:38:41.345Z,100059.42
2019-05-26T22:41:46.383Z,100063.42
2019-05-26T22:44:51.201Z,100064.30
2019-05-26T22:47:55.926Z,100070.47
2019-05-26T22:51:01.168Z,100066.09
2019-05-26T22:54:05.995Z,100061.55
2019-05-26T22:57:10.879Z,100060.76
2019-05-26T23:00:16.100Z,100061.69
2019-05-26T23:03:21.206Z,100059.69
2019-05-26T23:06:25.945Z,100048.08
2019-05-26T23:09:30.708Z,100052.16
2019-05-26T23:12:35.502Z,100047.63
2019-05-26T23:15:40.486Z,100041.82
2019-05-26T23:18:46.288Z,100040.39
2019-05-26T23:21:51.401Z,100041.75
2019-05-26T23:24:56.153Z,100042.45
2019-05-26T23:28:00.890Z,100040.03
2019-05-26T23:31:06.129Z,100030.73
2019-05-26T23:34:11.200Z,100035.52
2019-05-26T23:37:16.271Z,100032.52
2019-05-26T23:40:20.992Z,100034.98
2019-05-26T23:43:26.199Z,100033.64
2019-05-26T23:46:30.965Z,100031.86
2019-05-26T23:49:35.996Z,100035.05
2019-05-26T23:52:40.753Z,100024.89
2019-05-26T23:55:45.753Z,100022.99
2019-05-26T23:58:50.511Z,100021.84
